sensor_id;sensor_type;location;lat;lon;timestamp;P1;durP1;ratioP1;P2;durP2;ratioP2
3066;SDS011;1544;48.834;9.194;2023-05-16T00:00:10;12.17;;;10.30;;
3066;SDS011;1544;48.834;9.194;2023-05-16T00:02:47;11.20;;;10.20;;
3066;SDS011;1544;48.834;9.194;2023-05-16T00:05:23;13.50;;;12.20;;
3066;SDS011;1544;48.834;9.194;2023-05-16T00:08:00;13.73;;;12.43;;
3066;SDS011;1544;48.834;9.194;2023-05-16T00:10:35;13.37;;;12.07;;
3066;SDS011;1544;48.834;9.194;2023-05-16T00:13:11;11.93;;;10.77;;
3066;SDS011;1544;48.834;9.194;2023-05-16T00:15:47;13.27;;;12.00;;
3066;SDS011;1544;48.834;9.194;2023-05-16T00:18:23;13.60;;;12.30;;
3066;SDS011;1544;48.834;9.194;2023-05-16T00:21:00;12.70;;;11.50;;
3066;SDS011;1544;48.834;9.194;2023-05-16T00:23:36;15.33;;;13.83;;
3066;SDS011;1544;48.834;9.194;2023-05-16T00:26:12;13.77;;;12.47;;
3066;SDS011;1544;48.834;9.194;2023-05-16T00:28:49;14.50;;;13.17;;
3066;SDS011;1544;48.834;9.194;2023-05-16T00:31:24;13.23;;;12.03;;
3066;SDS011;1544;48.834;9.194;2023-05-16T00:34:00;13.57;;;12.37;;
3066;SDS011;1544;48.834;9.194;2023-05-16T00:36:36;12.77;;;11.67;;
3066;SDS011;1544;48.834;9.194;2023-05-16T00:39:12;12.80;;;11.50;;
3066;SDS011;1544;48.834;9.194;2023-05-16T00:41:48;13.13;;;11.87;;
3066;SDS011;1544;48.834;9.194;2023-05-16T00:44:24;15.07;;;11.80;;
3066;SDS011;1544;48.834;9.194;2023-05-16T00:47:00;14.73;;;13.27;;
3066;SDS011;1544;48.834;9.194;2023-05-16T00:49:37;15.47;;;13.47;;
3066;SDS011;1544;48.834;9.194;2023-05-16T00:52:14;14.73;;;12.67;;
3066;SDS011;1544;48.834;9.194;2023-05-16T00:54:50;14.90;;;13.40;;
3066;SDS011;1544;48.834;9.194;2023-05-16T00:57:26;14.40;;;12.67;;
3066;SDS011;1544;48.834;9.194;2023-05-16T01:00:05;17.57;;;15.47;;
3066;SDS011;1544;48.834;9.194;2023-05-16T01:02:45;16.63;;;14.87;;
3066;SDS011;1544;48.834;9.194;2023-05-16T01:05:22;15.07;;;13.50;;
3066;SDS011;1544;48.834;9.194;2023-05-16T01:07:58;19.40;;;17.20;;
3066;SDS011;1544;48.834;9.194;2023-05-16T01:10:48;19.10;;;17.10;;
3066;SDS011;1544;48.834;9.194;2023-05-16T01:13:42;19.00;;;16.40;;
3066;SDS011;1544;48.834;9.194;2023-05-16T01:16:59;19.03;;;17.07;;
3066;SDS011;1544;48.834;9.194;2023-05-16T01:23:16;23.60;;;20.07;;
3066;SDS011;1544;48.834;9.194;2023-05-16T01:26:31;21.77;;;18.97;;
3066;SDS011;1544;48.834;9.194;2023-05-16T01:29:07;21.37;;;19.07;;
3066;SDS011;1544;48.834;9.194;2023-05-16T01:31:44;22.97;;;19.70;;
3066;SDS011;1544;48.834;9.194;2023-05-16T01:34:20;25.97;;;21.10;;
3066;SDS011;1544;48.834;9.194;2023-05-16T01:37:10;25.10;;;20.93;;
3066;SDS011;1544;48.834;9.194;2023-05-16T01:39:58;23.10;;;20.40;;
3066;SDS011;1544;48.834;9.194;2023-05-16T01:42:51;25.97;;;20.93;;
3066;SDS011;1544;48.834;9.194;2023-05-16T01:45:33;27.00;;;22.00;;
3066;SDS011;1544;48.834;9.194;2023-05-16T01:48:16;34.00;;;24.20;;
3066;SDS011;1544;48.834;9.194;2023-05-16T01:50:57;25.17;;;22.30;;
3066;SDS011;1544;48.834;9.194;2023-05-16T01:53:37;27.10;;;23.97;;
3066;SDS011;1544;48.834;9.194;2023-05-16T01:56:14;31.37;;;24.87;;
3066;SDS011;1544;48.834;9.194;2023-05-16T01:58:51;34.83;;;25.77;;
3066;SDS011;1544;48.834;9.194;2023-05-16T02:01:28;33.80;;;25.73;;
3066;SDS011;1544;48.834;9.194;2023-05-16T02:04:05;33.80;;;26.10;;
3066;SDS011;1544;48.834;9.194;2023-05-16T02:06:42;36.03;;;26.50;;
3066;SDS011;1544;48.834;9.194;2023-05-16T02:09:19;35.20;;;26.37;;
3066;SDS011;1544;48.834;9.194;2023-05-16T02:11:55;34.70;;;27.30;;
3066;SDS011;1544;48.834;9.194;2023-05-16T02:14:32;35.60;;;25.90;;
3066;SDS011;1544;48.834;9.194;2023-05-16T02:17:08;31.17;;;25.80;;
3066;SDS011;1544;48.834;9.194;2023-05-16T02:19:44;38.63;;;27.87;;
3066;SDS011;1544;48.834;9.194;2023-05-16T02:22:20;35.20;;;27.47;;
3066;SDS011;1544;48.834;9.194;2023-05-16T02:24:56;38.60;;;27.40;;
3066;SDS011;1544;48.834;9.194;2023-05-16T02:27:32;39.80;;;29.03;;
3066;SDS011;1544;48.834;9.194;2023-05-16T02:30:08;38.60;;;27.43;;
3066;SDS011;1544;48.834;9.194;2023-05-16T02:32:46;38.60;;;28.50;;
3066;SDS011;1544;48.834;9.194;2023-05-16T02:35:24;40.07;;;29.30;;
3066;SDS011;1544;48.834;9.194;2023-05-16T02:38:00;43.00;;;29.30;;
3066;SDS011;1544;48.834;9.194;2023-05-16T02:40:36;38.23;;;26.80;;
3066;SDS011;1544;48.834;9.194;2023-05-16T02:43:12;43.80;;;29.60;;
3066;SDS011;1544;48.834;9.194;2023-05-16T02:45:49;38.30;;;28.37;;
3066;SDS011;1544;48.834;9.194;2023-05-16T02:48:26;34.60;;;26.60;;
3066;SDS011;1544;48.834;9.194;2023-05-16T02:51:02;40.00;;;28.17;;
3066;SDS011;1544;48.834;9.194;2023-05-16T02:53:38;38.27;;;27.73;;
3066;SDS011;1544;48.834;9.194;2023-05-16T02:56:14;40.73;;;28.07;;
3066;SDS011;1544;48.834;9.194;2023-05-16T02:58:52;42.37;;;28.23;;
3066;SDS011;1544;48.834;9.194;2023-05-16T03:01:29;41.13;;;29.10;;
3066;SDS011;1544;48.834;9.194;2023-05-16T03:04:05;44.03;;;29.03;;
3066;SDS011;1544;48.834;9.194;2023-05-16T03:06:41;45.70;;;29.87;;
3066;SDS011;1544;48.834;9.194;2023-05-16T03:09:18;45.47;;;30.23;;
3066;SDS011;1544;48.834;9.194;2023-05-16T03:11:54;46.40;;;29.37;;
3066;SDS011;1544;48.834;9.194;2023-05-16T03:14:30;43.43;;;28.70;;
3066;SDS011;1544;48.834;9.194;2023-05-16T03:17:06;40.50;;;28.40;;
3066;SDS011;1544;48.834;9.194;2023-05-16T03:19:42;47.30;;;30.47;;
3066;SDS011;1544;48.834;9.194;2023-05-16T03:22:20;50.43;;;31.40;;
3066;SDS011;1544;48.834;9.194;2023-05-16T03:24:55;54.30;;;31.87;;
3066;SDS011;1544;48.834;9.194;2023-05-16T03:27:31;46.40;;;31.17;;
3066;SDS011;1544;48.834;9.194;2023-05-16T03:30:07;48.80;;;31.20;;
3066;SDS011;1544;48.834;9.194;2023-05-16T03:32:44;51.13;;;32.43;;
3066;SDS011;1544;48.834;9.194;2023-05-16T03:35:20;53.87;;;33.80;;
3066;SDS011;1544;48.834;9.194;2023-05-16T03:37:57;51.73;;;32.60;;
3066;SDS011;1544;48.834;9.194;2023-05-16T03:40:33;51.57;;;32.90;;
3066;SDS011;1544;48.834;9.194;2023-05-16T03:43:09;51.97;;;32.97;;
3066;SDS011;1544;48.834;9.194;2023-05-16T03:45:46;52.53;;;33.53;;
3066;SDS011;1544;48.834;9.194;2023-05-16T03:48:22;53.40;;;32.83;;
3066;SDS011;1544;48.834;9.194;2023-05-16T03:50:58;53.70;;;32.80;;
3066;SDS011;1544;48.834;9.194;2023-05-16T03:53:34;50.03;;;32.50;;
3066;SDS011;1544;48.834;9.194;2023-05-16T03:56:10;51.97;;;34.13;;
3066;SDS011;1544;48.834;9.194;2023-05-16T03:58:47;48.60;;;32.77;;
3066;SDS011;1544;48.834;9.194;2023-05-16T04:01:22;57.50;;;35.67;;
3066;SDS011;1544;48.834;9.194;2023-05-16T04:03:58;48.97;;;31.60;;
3066;SDS011;1544;48.834;9.194;2023-05-16T04:06:34;52.77;;;33.40;;
3066;SDS011;1544;48.834;9.194;2023-05-16T04:09:10;54.97;;;33.70;;
3066;SDS011;1544;48.834;9.194;2023-05-16T04:11:46;60.57;;;35.00;;
3066;SDS011;1544;48.834;9.194;2023-05-16T04:14:22;50.20;;;31.80;;
3066;SDS011;1544;48.834;9.194;2023-05-16T04:16:58;62.63;;;36.07;;
3066;SDS011;1544;48.834;9.194;2023-05-16T04:19:35;61.90;;;36.17;;
3066;SDS011;1544;48.834;9.194;2023-05-16T04:22:11;55.53;;;35.20;;
3066;SDS011;1544;48.834;9.194;2023-05-16T04:24:47;51.67;;;32.97;;
3066;SDS011;1544;48.834;9.194;2023-05-16T04:27:23;60.00;;;34.57;;
3066;SDS011;1544;48.834;9.194;2023-05-16T04:30:01;56.70;;;35.10;;
3066;SDS011;1544;48.834;9.194;2023-05-16T04:32:37;56.07;;;34.63;;
3066;SDS011;1544;48.834;9.194;2023-05-16T04:35:13;47.50;;;30.00;;
3066;SDS011;1544;48.834;9.194;2023-05-16T04:37:49;57.73;;;35.07;;
3066;SDS011;1544;48.834;9.194;2023-05-16T04:40:25;50.27;;;32.23;;
3066;SDS011;1544;48.834;9.194;2023-05-16T04:43:02;55.53;;;34.00;;
3066;SDS011;1544;48.834;9.194;2023-05-16T04:45:37;55.87;;;33.67;;
3066;SDS011;1544;48.834;9.194;2023-05-16T04:48:13;61.87;;;36.67;;
3066;SDS011;1544;48.834;9.194;2023-05-16T04:50:49;55.53;;;34.43;;
3066;SDS011;1544;48.834;9.194;2023-05-16T04:53:26;52.83;;;34.00;;
3066;SDS011;1544;48.834;9.194;2023-05-16T04:56:03;50.33;;;32.90;;
3066;SDS011;1544;48.834;9.194;2023-05-16T04:58:40;56.97;;;34.33;;
3066;SDS011;1544;48.834;9.194;2023-05-16T05:01:17;56.73;;;33.33;;
3066;SDS011;1544;48.834;9.194;2023-05-16T05:03:53;51.67;;;32.40;;
3066;SDS011;1544;48.834;9.194;2023-05-16T05:06:29;57.70;;;34.97;;
3066;SDS011;1544;48.834;9.194;2023-05-16T05:09:05;54.33;;;34.30;;
3066;SDS011;1544;48.834;9.194;2023-05-16T05:11:41;52.20;;;32.23;;
3066;SDS011;1544;48.834;9.194;2023-05-16T05:14:17;54.50;;;34.40;;
3066;SDS011;1544;48.834;9.194;2023-05-16T05:16:53;52.37;;;33.90;;
3066;SDS011;1544;48.834;9.194;2023-05-16T05:19:29;50.87;;;32.77;;
3066;SDS011;1544;48.834;9.194;2023-05-16T05:22:05;56.07;;;34.20;;
3066;SDS011;1544;48.834;9.194;2023-05-16T05:24:41;48.83;;;30.90;;
3066;SDS011;1544;48.834;9.194;2023-05-16T05:27:17;52.70;;;35.87;;
3066;SDS011;1544;48.834;9.194;2023-05-16T05:29:53;53.13;;;34.03;;
3066;SDS011;1544;48.834;9.194;2023-05-16T05:32:29;47.83;;;34.03;;
3066;SDS011;1544;48.834;9.194;2023-05-16T05:35:05;54.97;;;34.03;;
3066;SDS011;1544;48.834;9.194;2023-05-16T05:37:42;45.63;;;32.27;;
3066;SDS011;1544;48.834;9.194;2023-05-16T05:40:18;55.57;;;33.93;;
3066;SDS011;1544;48.834;9.194;2023-05-16T05:42:53;43.30;;;30.27;;
3066;SDS011;1544;48.834;9.194;2023-05-16T05:45:29;46.53;;;31.53;;
3066;SDS011;1544;48.834;9.194;2023-05-16T05:48:05;48.53;;;31.47;;
3066;SDS011;1544;48.834;9.194;2023-05-16T05:50:42;48.10;;;32.30;;
3066;SDS011;1544;48.834;9.194;2023-05-16T05:53:18;53.00;;;33.30;;
3066;SDS011;1544;48.834;9.194;2023-05-16T05:55:54;51.40;;;32.23;;
3066;SDS011;1544;48.834;9.194;2023-05-16T05:58:30;48.13;;;30.90;;
3066;SDS011;1544;48.834;9.194;2023-05-16T06:01:06;51.37;;;32.77;;
3066;SDS011;1544;48.834;9.194;2023-05-16T06:03:42;45.83;;;31.23;;
3066;SDS011;1544;48.834;9.194;2023-05-16T06:06:18;43.30;;;28.77;;
3066;SDS011;1544;48.834;9.194;2023-05-16T06:08:54;42.93;;;29.70;;
3066;SDS011;1544;48.834;9.194;2023-05-16T06:11:30;44.03;;;30.23;;
3066;SDS011;1544;48.834;9.194;2023-05-16T06:14:06;44.53;;;30.97;;
3066;SDS011;1544;48.834;9.194;2023-05-16T06:16:42;37.57;;;27.50;;
3066;SDS011;1544;48.834;9.194;2023-05-16T06:19:18;39.77;;;27.07;;
3066;SDS011;1544;48.834;9.194;2023-05-16T06:21:54;40.00;;;28.00;;
3066;SDS011;1544;48.834;9.194;2023-05-16T06:24:30;36.63;;;27.53;;
3066;SDS011;1544;48.834;9.194;2023-05-16T06:27:06;37.67;;;26.83;;
3066;SDS011;1544;48.834;9.194;2023-05-16T06:29:43;33.90;;;25.60;;
3066;SDS011;1544;48.834;9.194;2023-05-16T06:32:18;34.23;;;24.20;;
3066;SDS011;1544;48.834;9.194;2023-05-16T06:34:55;37.63;;;26.73;;
3066;SDS011;1544;48.834;9.194;2023-05-16T06:37:31;32.37;;;24.10;;
3066;SDS011;1544;48.834;9.194;2023-05-16T06:40:07;39.60;;;26.03;;
3066;SDS011;1544;48.834;9.194;2023-05-16T06:42:43;35.10;;;27.07;;
3066;SDS011;1544;48.834;9.194;2023-05-16T06:45:19;35.80;;;26.40;;
3066;SDS011;1544;48.834;9.194;2023-05-16T06:47:55;29.07;;;23.27;;
3066;SDS011;1544;48.834;9.194;2023-05-16T06:50:32;31.53;;;24.13;;
3066;SDS011;1544;48.834;9.194;2023-05-16T06:53:09;33.70;;;24.63;;
3066;SDS011;1544;48.834;9.194;2023-05-16T06:55:46;30.90;;;23.10;;
3066;SDS011;1544;48.834;9.194;2023-05-16T06:58:22;29.37;;;23.10;;
3066;SDS011;1544;48.834;9.194;2023-05-16T07:00:58;30.50;;;23.40;;
3066;SDS011;1544;48.834;9.194;2023-05-16T07:03:34;31.10;;;23.23;;
3066;SDS011;1544;48.834;9.194;2023-05-16T07:06:10;32.33;;;23.67;;
3066;SDS011;1544;48.834;9.194;2023-05-16T07:08:46;32.87;;;23.30;;
3066;SDS011;1544;48.834;9.194;2023-05-16T07:11:23;28.13;;;20.63;;
3066;SDS011;1544;48.834;9.194;2023-05-16T07:13:59;24.23;;;20.03;;
3066;SDS011;1544;48.834;9.194;2023-05-16T07:16:34;24.87;;;18.80;;
3066;SDS011;1544;48.834;9.194;2023-05-16T07:19:11;18.40;;;16.40;;
3066;SDS011;1544;48.834;9.194;2023-05-16T07:21:47;20.80;;;17.07;;
3066;SDS011;1544;48.834;9.194;2023-05-16T07:24:23;18.47;;;16.57;;
3066;SDS011;1544;48.834;9.194;2023-05-16T07:26:59;19.57;;;16.33;;
3066;SDS011;1544;48.834;9.194;2023-05-16T07:29:35;18.87;;;16.90;;
3066;SDS011;1544;48.834;9.194;2023-05-16T07:32:12;17.73;;;14.43;;
3066;SDS011;1544;48.834;9.194;2023-05-16T07:34:48;14.77;;;13.07;;
3066;SDS011;1544;48.834;9.194;2023-05-16T07:37:24;16.00;;;13.43;;
3066;SDS011;1544;48.834;9.194;2023-05-16T07:40:00;12.77;;;11.53;;
3066;SDS011;1544;48.834;9.194;2023-05-16T07:42:37;14.90;;;12.93;;
3066;SDS011;1544;48.834;9.194;2023-05-16T07:45:13;13.70;;;12.10;;
3066;SDS011;1544;48.834;9.194;2023-05-16T07:47:49;12.53;;;11.33;;
3066;SDS011;1544;48.834;9.194;2023-05-16T07:50:25;11.40;;;10.33;;
3066;SDS011;1544;48.834;9.194;2023-05-16T07:53:01;11.27;;;10.27;;
3066;SDS011;1544;48.834;9.194;2023-05-16T07:55:38;12.40;;;11.20;;
3066;SDS011;1544;48.834;9.194;2023-05-16T07:58:14;12.90;;;10.77;;
3066;SDS011;1544;48.834;9.194;2023-05-16T08:00:50;12.13;;;10.70;;
3066;SDS011;1544;48.834;9.194;2023-05-16T08:03:26;12.07;;;10.87;;
3066;SDS011;1544;48.834;9.194;2023-05-16T08:06:02;11.40;;;10.30;;
3066;SDS011;1544;48.834;9.194;2023-05-16T08:08:38;12.73;;;11.50;;
3066;SDS011;1544;48.834;9.194;2023-05-16T08:11:14;11.60;;;9.83;;
3066;SDS011;1544;48.834;9.194;2023-05-16T08:13:50;10.80;;;9.80;;
3066;SDS011;1544;48.834;9.194;2023-05-16T08:16:26;11.83;;;10.63;;
3066;SDS011;1544;48.834;9.194;2023-05-16T08:19:02;11.73;;;10.63;;
3066;SDS011;1544;48.834;9.194;2023-05-16T08:21:38;10.60;;;9.60;;
3066;SDS011;1544;48.834;9.194;2023-05-16T08:24:15;10.20;;;9.20;;
3066;SDS011;1544;48.834;9.194;2023-05-16T08:26:52;11.70;;;10.50;;
3066;SDS011;1544;48.834;9.194;2023-05-16T08:29:28;11.83;;;10.63;;
3066;SDS011;1544;48.834;9.194;2023-05-16T08:32:07;14.00;;;12.60;;
3066;SDS011;1544;48.834;9.194;2023-05-16T08:34:44;13.47;;;12.13;;
3066;SDS011;1544;48.834;9.194;2023-05-16T08:37:19;14.60;;;12.70;;
3066;SDS011;1544;48.834;9.194;2023-05-16T08:39:56;14.83;;;13.30;;
3066;SDS011;1544;48.834;9.194;2023-05-16T08:42:33;15.10;;;13.33;;
3066;SDS011;1544;48.834;9.194;2023-05-16T08:45:09;16.03;;;13.33;;
3066;SDS011;1544;48.834;9.194;2023-05-16T08:47:46;16.40;;;13.80;;
3066;SDS011;1544;48.834;9.194;2023-05-16T08:50:28;17.70;;;13.80;;
3066;SDS011;1544;48.834;9.194;2023-05-16T08:53:06;18.67;;;15.30;;
3066;SDS011;1544;48.834;9.194;2023-05-16T08:55:43;15.30;;;13.70;;
3066;SDS011;1544;48.834;9.194;2023-05-16T08:58:22;16.27;;;14.53;;
3066;SDS011;1544;48.834;9.194;2023-05-16T09:00:59;18.63;;;15.53;;
3066;SDS011;1544;48.834;9.194;2023-05-16T09:03:38;19.43;;;15.97;;
3066;SDS011;1544;48.834;9.194;2023-05-16T09:06:15;19.87;;;15.70;;
3066;SDS011;1544;48.834;9.194;2023-05-16T09:08:52;17.13;;;15.20;;
3066;SDS011;1544;48.834;9.194;2023-05-16T09:11:28;20.70;;;16.70;;
3066;SDS011;1544;48.834;9.194;2023-05-16T09:14:04;22.03;;;16.87;;
3066;SDS011;1544;48.834;9.194;2023-05-16T09:16:40;20.47;;;16.67;;
3066;SDS011;1544;48.834;9.194;2023-05-16T09:19:17;22.67;;;16.50;;
3066;SDS011;1544;48.834;9.194;2023-05-16T09:21:53;18.83;;;15.50;;
3066;SDS011;1544;48.834;9.194;2023-05-16T09:24:29;18.83;;;16.53;;
3066;SDS011;1544;48.834;9.194;2023-05-16T09:29:49;23.40;;;17.10;;
3066;SDS011;1544;48.834;9.194;2023-05-16T09:32:26;20.63;;;16.43;;
3066;SDS011;1544;48.834;9.194;2023-05-16T09:35:02;21.70;;;18.60;;
3066;SDS011;1544;48.834;9.194;2023-05-16T09:37:42;20.37;;;17.13;;
3066;SDS011;1544;48.834;9.194;2023-05-16T09:40:22;24.10;;;19.03;;
3066;SDS011;1544;48.834;9.194;2023-05-16T09:43:02;23.20;;;18.60;;
3066;SDS011;1544;48.834;9.194;2023-05-16T09:45:44;20.10;;;16.43;;
3066;SDS011;1544;48.834;9.194;2023-05-16T09:48:22;21.57;;;17.00;;
3066;SDS011;1544;48.834;9.194;2023-05-16T09:50:59;20.83;;;17.83;;
3066;SDS011;1544;48.834;9.194;2023-05-16T09:53:40;23.63;;;17.90;;
3066;SDS011;1544;48.834;9.194;2023-05-16T09:56:16;20.33;;;16.07;;
3066;SDS011;1544;48.834;9.194;2023-05-16T09:58:52;19.73;;;17.20;;
3066;SDS011;1544;48.834;9.194;2023-05-16T10:01:28;21.57;;;17.80;;
3066;SDS011;1544;48.834;9.194;2023-05-16T10:04:05;22.33;;;17.63;;
3066;SDS011;1544;48.834;9.194;2023-05-16T10:06:41;21.90;;;17.17;;
3066;SDS011;1544;48.834;9.194;2023-05-16T10:09:18;20.00;;;17.27;;
3066;SDS011;1544;48.834;9.194;2023-05-16T10:11:57;21.87;;;17.20;;
3066;SDS011;1544;48.834;9.194;2023-05-16T10:14:38;21.23;;;15.50;;
3066;SDS011;1544;48.834;9.194;2023-05-16T10:17:16;22.23;;;15.00;;
3066;SDS011;1544;48.834;9.194;2023-05-16T10:19:53;14.57;;;13.07;;
3066;SDS011;1544;48.834;9.194;2023-05-16T10:22:29;16.67;;;13.90;;
3066;SDS011;1544;48.834;9.194;2023-05-16T10:28:01;18.23;;;14.40;;
3066;SDS011;1544;48.834;9.194;2023-05-16T10:30:41;16.43;;;14.53;;
3066;SDS011;1544;48.834;9.194;2023-05-16T10:33:21;16.50;;;14.47;;
3066;SDS011;1544;48.834;9.194;2023-05-16T10:35:57;16.20;;;14.30;;
3066;SDS011;1544;48.834;9.194;2023-05-16T10:38:33;20.93;;;15.40;;
3066;SDS011;1544;48.834;9.194;2023-05-16T10:41:09;16.17;;;13.30;;
3066;SDS011;1544;48.834;9.194;2023-05-16T10:43:54;16.17;;;14.43;;
3066;SDS011;1544;48.834;9.194;2023-05-16T10:46:32;15.07;;;13.43;;
3066;SDS011;1544;48.834;9.194;2023-05-16T10:49:24;18.23;;;14.17;;
3066;SDS011;1544;48.834;9.194;2023-05-16T10:54:50;18.80;;;13.83;;
3066;SDS011;1544;48.834;9.194;2023-05-16T10:57:26;20.10;;;13.00;;
3066;SDS011;1544;48.834;9.194;2023-05-16T11:00:02;16.03;;;13.43;;
3066;SDS011;1544;48.834;9.194;2023-05-16T11:02:44;16.43;;;12.77;;
3066;SDS011;1544;48.834;9.194;2023-05-16T11:05:21;18.60;;;14.27;;
3066;SDS011;1544;48.834;9.194;2023-05-16T11:08:04;16.83;;;13.70;;
3066;SDS011;1544;48.834;9.194;2023-05-16T11:10:40;19.10;;;14.90;;
3066;SDS011;1544;48.834;9.194;2023-05-16T11:13:16;18.57;;;13.07;;
3066;SDS011;1544;48.834;9.194;2023-05-16T11:19:04;13.50;;;9.63;;
3066;SDS011;1544;48.834;9.194;2023-05-16T11:22:03;11.63;;;10.40;;
3066;SDS011;1544;48.834;9.194;2023-05-16T11:25:03;9.63;;;8.57;;
3066;SDS011;1544;48.834;9.194;2023-05-16T11:27:45;10.93;;;8.90;;
3066;SDS011;1544;48.834;9.194;2023-05-16T11:30:22;8.93;;;7.80;;
3066;SDS011;1544;48.834;9.194;2023-05-16T11:32:58;8.23;;;7.43;;
3066;SDS011;1544;48.834;9.194;2023-05-16T11:35:34;9.83;;;8.80;;
3066;SDS011;1544;48.834;9.194;2023-05-16T11:38:12;9.63;;;7.70;;
3066;SDS011;1544;48.834;9.194;2023-05-16T11:40:50;9.87;;;7.70;;
3066;SDS011;1544;48.834;9.194;2023-05-16T11:43:27;8.00;;;7.20;;
3066;SDS011;1544;48.834;9.194;2023-05-16T11:46:03;9.20;;;8.30;;
3066;SDS011;1544;48.834;9.194;2023-05-16T11:48:39;8.00;;;7.20;;
3066;SDS011;1544;48.834;9.194;2023-05-16T11:51:18;9.03;;;8.13;;
3066;SDS011;1544;48.834;9.194;2023-05-16T11:53:55;9.30;;;8.20;;
3066;SDS011;1544;48.834;9.194;2023-05-16T11:56:33;9.23;;;8.17;;
3066;SDS011;1544;48.834;9.194;2023-05-16T11:59:10;9.40;;;8.10;;
3066;SDS011;1544;48.834;9.194;2023-05-16T12:01:46;10.27;;;7.60;;
3066;SDS011;1544;48.834;9.194;2023-05-16T12:04:23;8.07;;;7.27;;
3066;SDS011;1544;48.834;9.194;2023-05-16T12:07:00;9.50;;;8.60;;
3066;SDS011;1544;48.834;9.194;2023-05-16T12:09:36;7.60;;;6.93;;
3066;SDS011;1544;48.834;9.194;2023-05-16T12:12:12;7.20;;;6.50;;
3066;SDS011;1544;48.834;9.194;2023-05-16T12:14:49;8.10;;;6.83;;
3066;SDS011;1544;48.834;9.194;2023-05-16T12:17:25;7.00;;;6.23;;
3066;SDS011;1544;48.834;9.194;2023-05-16T12:20:02;6.20;;;5.40;;
3066;SDS011;1544;48.834;9.194;2023-05-16T12:22:43;6.40;;;5.90;;
3066;SDS011;1544;48.834;9.194;2023-05-16T12:25:27;5.20;;;4.70;;
3066;SDS011;1544;48.834;9.194;2023-05-16T12:28:06;3.73;;;3.53;;
3066;SDS011;1544;48.834;9.194;2023-05-16T12:30:42;4.83;;;4.33;;
3066;SDS011;1544;48.834;9.194;2023-05-16T12:33:20;6.83;;;3.90;;
3066;SDS011;1544;48.834;9.194;2023-05-16T12:35:57;3.23;;;2.80;;
3066;SDS011;1544;48.834;9.194;2023-05-16T12:38:35;3.80;;;3.50;;
3066;SDS011;1544;48.834;9.194;2023-05-16T12:41:16;4.10;;;3.17;;
3066;SDS011;1544;48.834;9.194;2023-05-16T12:44:04;3.70;;;3.40;;
3066;SDS011;1544;48.834;9.194;2023-05-16T12:46:52;3.70;;;3.40;;
3066;SDS011;1544;48.834;9.194;2023-05-16T12:49:29;3.23;;;3.03;;
3066;SDS011;1544;48.834;9.194;2023-05-16T12:52:07;2.80;;;2.60;;
3066;SDS011;1544;48.834;9.194;2023-05-16T12:54:54;3.23;;;3.13;;
3066;SDS011;1544;48.834;9.194;2023-05-16T12:57:30;2.97;;;2.77;;
3066;SDS011;1544;48.834;9.194;2023-05-16T13:00:09;4.13;;;3.00;;
3066;SDS011;1544;48.834;9.194;2023-05-16T13:02:52;3.30;;;3.20;;
3066;SDS011;1544;48.834;9.194;2023-05-16T13:05:29;2.80;;;2.60;;
3066;SDS011;1544;48.834;9.194;2023-05-16T13:08:05;3.07;;;2.77;;
3066;SDS011;1544;48.834;9.194;2023-05-16T13:10:41;3.00;;;2.80;;
3066;SDS011;1544;48.834;9.194;2023-05-16T13:13:17;2.60;;;2.40;;
3066;SDS011;1544;48.834;9.194;2023-05-16T13:16:10;2.20;;;2.10;;
3066;SDS011;1544;48.834;9.194;2023-05-16T13:18:46;2.97;;;2.77;;
3066;SDS011;1544;48.834;9.194;2023-05-16T13:21:22;4.73;;;2.70;;
3066;SDS011;1544;48.834;9.194;2023-05-16T13:23:58;3.97;;;2.37;;
3066;SDS011;1544;48.834;9.194;2023-05-16T13:26:34;2.00;;;1.90;;
3066;SDS011;1544;48.834;9.194;2023-05-16T13:29:10;2.10;;;1.97;;
3066;SDS011;1544;48.834;9.194;2023-05-16T13:31:46;2.50;;;2.30;;
3066;SDS011;1544;48.834;9.194;2023-05-16T13:34:22;1.90;;;1.80;;
3066;SDS011;1544;48.834;9.194;2023-05-16T13:36:58;2.50;;;2.40;;
3066;SDS011;1544;48.834;9.194;2023-05-16T13:39:34;2.83;;;2.30;;
3066;SDS011;1544;48.834;9.194;2023-05-16T13:42:10;2.00;;;1.90;;
3066;SDS011;1544;48.834;9.194;2023-05-16T13:44:46;2.30;;;2.20;;
3066;SDS011;1544;48.834;9.194;2023-05-16T13:47:22;1.97;;;1.87;;
3066;SDS011;1544;48.834;9.194;2023-05-16T13:49:58;2.43;;;2.33;;
3066;SDS011;1544;48.834;9.194;2023-05-16T13:52:38;2.20;;;2.10;;
3066;SDS011;1544;48.834;9.194;2023-05-16T13:55:14;1.80;;;1.70;;
3066;SDS011;1544;48.834;9.194;2023-05-16T13:57:50;2.00;;;1.80;;
3066;SDS011;1544;48.834;9.194;2023-05-16T14:00:27;2.50;;;2.30;;
3066;SDS011;1544;48.834;9.194;2023-05-16T14:03:18;2.27;;;2.00;;
3066;SDS011;1544;48.834;9.194;2023-05-16T14:05:54;2.60;;;2.50;;
3066;SDS011;1544;48.834;9.194;2023-05-16T14:08:30;2.73;;;2.53;;
3066;SDS011;1544;48.834;9.194;2023-05-16T14:11:06;2.37;;;2.27;;
3066;SDS011;1544;48.834;9.194;2023-05-16T14:13:42;2.40;;;2.30;;
3066;SDS011;1544;48.834;9.194;2023-05-16T14:16:18;2.27;;;2.10;;
3066;SDS011;1544;48.834;9.194;2023-05-16T14:18:55;2.30;;;2.20;;
3066;SDS011;1544;48.834;9.194;2023-05-16T14:21:31;2.73;;;2.53;;
3066;SDS011;1544;48.834;9.194;2023-05-16T14:24:08;3.07;;;2.37;;
3066;SDS011;1544;48.834;9.194;2023-05-16T14:26:45;3.40;;;1.90;;
3066;SDS011;1544;48.834;9.194;2023-05-16T14:29:21;2.13;;;1.90;;
3066;SDS011;1544;48.834;9.194;2023-05-16T14:31:57;1.97;;;1.73;;
3066;SDS011;1544;48.834;9.194;2023-05-16T14:34:33;2.23;;;2.13;;
3066;SDS011;1544;48.834;9.194;2023-05-16T14:37:09;2.40;;;2.20;;
3066;SDS011;1544;48.834;9.194;2023-05-16T14:39:45;1.50;;;1.40;;
3066;SDS011;1544;48.834;9.194;2023-05-16T14:42:23;1.87;;;1.77;;
3066;SDS011;1544;48.834;9.194;2023-05-16T14:45:00;2.23;;;1.70;;
3066;SDS011;1544;48.834;9.194;2023-05-16T14:47:36;1.50;;;1.40;;
3066;SDS011;1544;48.834;9.194;2023-05-16T14:50:12;1.40;;;1.30;;
3066;SDS011;1544;48.834;9.194;2023-05-16T14:52:48;3.77;;;1.20;;
3066;SDS011;1544;48.834;9.194;2023-05-16T14:55:24;2.60;;;1.10;;
3066;SDS011;1544;48.834;9.194;2023-05-16T14:58:01;2.00;;;1.47;;
3066;SDS011;1544;48.834;9.194;2023-05-16T15:00:38;1.10;;;1.00;;
3066;SDS011;1544;48.834;9.194;2023-05-16T15:03:15;0.90;;;0.90;;
3066;SDS011;1544;48.834;9.194;2023-05-16T15:05:54;1.87;;;1.23;;
3066;SDS011;1544;48.834;9.194;2023-05-16T15:08:32;2.13;;;1.30;;
3066;SDS011;1544;48.834;9.194;2023-05-16T15:11:09;1.47;;;1.10;;
3066;SDS011;1544;48.834;9.194;2023-05-16T15:13:45;1.17;;;1.00;;
3066;SDS011;1544;48.834;9.194;2023-05-16T15:16:22;1.40;;;1.17;;
3066;SDS011;1544;48.834;9.194;2023-05-16T15:18:58;1.07;;;1.00;;
3066;SDS011;1544;48.834;9.194;2023-05-16T15:21:35;3.00;;;1.10;;
3066;SDS011;1544;48.834;9.194;2023-05-16T15:24:11;1.20;;;1.10;;
3066;SDS011;1544;48.834;9.194;2023-05-16T15:26:48;1.27;;;1.17;;
3066;SDS011;1544;48.834;9.194;2023-05-16T15:29:24;1.30;;;1.20;;
3066;SDS011;1544;48.834;9.194;2023-05-16T15:32:03;1.53;;;1.07;;
3066;SDS011;1544;48.834;9.194;2023-05-16T15:34:41;3.90;;;1.23;;
3066;SDS011;1544;48.834;9.194;2023-05-16T15:37:17;6.87;;;1.30;;
3066;SDS011;1544;48.834;9.194;2023-05-16T15:39:53;3.23;;;1.50;;
3066;SDS011;1544;48.834;9.194;2023-05-16T15:42:29;3.13;;;1.40;;
3066;SDS011;1544;48.834;9.194;2023-05-16T15:45:05;3.30;;;1.70;;
3066;SDS011;1544;48.834;9.194;2023-05-16T15:47:43;1.50;;;1.40;;
3066;SDS011;1544;48.834;9.194;2023-05-16T15:50:19;1.87;;;1.17;;
3066;SDS011;1544;48.834;9.194;2023-05-16T15:52:56;2.07;;;1.50;;
3066;SDS011;1544;48.834;9.194;2023-05-16T15:55:32;2.50;;;1.30;;
3066;SDS011;1544;48.834;9.194;2023-05-16T15:58:08;2.40;;;1.50;;
3066;SDS011;1544;48.834;9.194;2023-05-16T16:00:44;6.07;;;1.70;;
3066;SDS011;1544;48.834;9.194;2023-05-16T16:03:20;6.07;;;1.80;;
3066;SDS011;1544;48.834;9.194;2023-05-16T16:05:56;1.50;;;1.40;;
3066;SDS011;1544;48.834;9.194;2023-05-16T16:08:32;3.73;;;1.53;;
3066;SDS011;1544;48.834;9.194;2023-05-16T16:11:08;1.93;;;1.40;;